sensor_id;sensor_type;location;lat;lon;timestamp;pressure;altitude;pressure_sealevel;temperature;humidity
58072;BME280;60383;46.626;18.866;2022-09-27T00:00:22;99267.00;;;12.37;95.81
58072;BME280;60383;46.626;18.866;2022-09-27T00:02:48;99279.03;;;12.36;96.29
58072;BME280;60383;46.626;18.866;2022-09-27T00:05:14;99270.34;;;12.33;95.91
58072;BME280;60383;46.626;18.866;2022-09-27T00:07:40;99268.38;;;12.26;96.40
58072;BME280;60383;46.626;18.866;2022-09-27T00:10:06;99265.44;;;12.28;96.10
58072;BME280;60383;46.626;18.866;2022-09-27T00:12:32;99261.84;;;12.27;95.80
58072;BME280;60383;46.626;18.866;2022-09-27T00:14:58;99261.84;;;12.27;95.78
58072;BME280;60383;46.626;18.866;2022-09-27T00:17:24;99252.81;;;12.12;96.35
58072;BME280;60383;46.626;18.866;2022-09-27T00:19:50;99246.34;;;11.98;96.51
58072;BME280;60383;46.626;18.866;2022-09-27T00:22:16;99256.28;;;11.99;96.75
58072;BME280;60383;46.626;18.866;2022-09-27T00:24:41;99249.56;;;11.87;97.24
58072;BME280;60383;46.626;18.866;2022-09-27T00:27:06;99247.03;;;11.85;97.64
58072;BME280;60383;46.626;18.866;2022-09-27T00:29:32;99242.50;;;11.77;98.07
58072;BME280;60383;46.626;18.866;2022-09-27T00:31:57;99243.56;;;11.76;98.08
58072;BME280;60383;46.626;18.866;2022-09-27T00:34:24;99244.28;;;11.85;97.01
58072;BME280;60383;46.626;18.866;2022-09-27T00:36:50;99245.59;;;11.89;95.77
58072;BME280;60383;46.626;18.866;2022-09-27T00:39:16;99236.44;;;11.82;95.97
58072;BME280;60383;46.626;18.866;2022-09-27T00:41:43;99239.38;;;11.80;95.99
58072;BME280;60383;46.626;18.866;2022-09-27T00:46:59;99234.28;;;11.56;95.78
58072;BME280;60383;46.626;18.866;2022-09-27T00:49:31;99229.06;;;11.61;96.12
58072;BME280;60383;46.626;18.866;2022-09-27T00:52:03;99219.69;;;11.55;95.53
58072;BME280;60383;46.626;18.866;2022-09-27T00:54:30;99223.31;;;11.56;95.37
58072;BME280;60383;46.626;18.866;2022-09-27T00:56:56;99218.75;;;11.48;95.17
58072;BME280;60383;46.626;18.866;2022-09-27T00:59:32;99214.16;;;11.48;94.89
58072;BME280;60383;46.626;18.866;2022-09-27T01:01:59;99217.72;;;11.49;94.90
58072;BME280;60383;46.626;18.866;2022-09-27T01:04:27;99216.31;;;11.53;94.81
58072;BME280;60383;46.626;18.866;2022-09-27T01:06:54;99215.19;;;11.47;95.63
58072;BME280;60383;46.626;18.866;2022-09-27T01:09:20;99213.22;;;11.41;95.14
58072;BME280;60383;46.626;18.866;2022-09-27T01:29:14;99199.25;;;11.21;93.48
58072;BME280;60383;46.626;18.866;2022-09-27T01:31:48;99190.78;;;11.16;93.00
58072;BME280;60383;46.626;18.866;2022-09-27T01:42:23;99176.34;;;11.07;93.10
58072;BME280;60383;46.626;18.866;2022-09-27T01:45:03;99174.63;;;11.06;93.36
58072;BME280;60383;46.626;18.866;2022-09-27T01:47:36;99172.94;;;11.05;93.30
58072;BME280;60383;46.626;18.866;2022-09-27T01:50:08;99168.94;;;11.08;93.35
58072;BME280;60383;46.626;18.866;2022-09-27T01:53:04;99159.81;;;11.00;93.34
58072;BME280;60383;46.626;18.866;2022-09-27T01:55:32;99162.16;;;10.89;93.61
58072;BME280;60383;46.626;18.866;2022-09-27T01:58:14;99158.41;;;10.90;93.98
58072;BME280;60383;46.626;18.866;2022-09-27T02:00:44;99149.16;;;10.76;94.23
58072;BME280;60383;46.626;18.866;2022-09-27T02:03:20;99154.44;;;10.77;94.36
58072;BME280;60383;46.626;18.866;2022-09-27T02:05:54;99157.44;;;10.82;93.97
58072;BME280;60383;46.626;18.866;2022-09-27T02:11:24;99152.44;;;10.86;94.26
58072;BME280;60383;46.626;18.866;2022-09-27T02:14:10;99165.78;;;10.89;94.01
58072;BME280;60383;46.626;18.866;2022-09-27T02:19:15;99141.78;;;10.76;93.48
58072;BME280;60383;46.626;18.866;2022-09-27T02:21:44;99145.97;;;10.57;93.87
58072;BME280;60383;46.626;18.866;2022-09-27T02:24:20;99140.31;;;10.59;93.03
58072;BME280;60383;46.626;18.866;2022-09-27T02:26:56;99136.50;;;10.45;93.51
58072;BME280;60383;46.626;18.866;2022-09-27T02:29:33;99136.66;;;10.28;93.78
58072;BME280;60383;46.626;18.866;2022-09-27T02:32:01;99145.59;;;10.45;93.65
58072;BME280;60383;46.626;18.866;2022-09-27T02:34:28;99130.66;;;9.95;94.72
58072;BME280;60383;46.626;18.866;2022-09-27T02:36:55;99135.41;;;9.78;95.47
58072;BME280;60383;46.626;18.866;2022-09-27T02:39:21;99144.13;;;9.58;98.26
58072;BME280;60383;46.626;18.866;2022-09-27T02:41:47;99143.75;;;9.61;97.71
58072;BME280;60383;46.626;18.866;2022-09-27T02:44:13;99137.44;;;9.37;97.38
58072;BME280;60383;46.626;18.866;2022-09-27T02:57:39;99139.81;;;10.02;95.39
58072;BME280;60383;46.626;18.866;2022-09-27T03:00:12;99136.13;;;9.95;95.02
58072;BME280;60383;46.626;18.866;2022-09-27T03:03:01;99143.72;;;10.07;94.46
58072;BME280;60383;46.626;18.866;2022-09-27T03:05:34;99128.03;;;10.01;94.60
58072;BME280;60383;46.626;18.866;2022-09-27T03:08:02;99128.22;;;10.00;95.65
58072;BME280;60383;46.626;18.866;2022-09-27T03:10:28;99134.06;;;9.97;95.50
58072;BME280;60383;46.626;18.866;2022-09-27T03:12:55;99137.22;;;9.85;96.96
58072;BME280;60383;46.626;18.866;2022-09-27T03:15:22;99132.06;;;9.90;96.50
58072;BME280;60383;46.626;18.866;2022-09-27T03:17:48;99135.28;;;9.94;97.02
58072;BME280;60383;46.626;18.866;2022-09-27T03:20:13;99130.44;;;9.81;97.56
58072;BME280;60383;46.626;18.866;2022-09-27T03:22:39;99134.91;;;9.97;97.59
58072;BME280;60383;46.626;18.866;2022-09-27T13:12:48;98706.28;;;19.87;64.08
58072;BME280;60383;46.626;18.866;2022-09-27T13:15:26;98701.88;;;19.69;65.77
58072;BME280;60383;46.626;18.866;2022-09-27T13:17:55;98711.31;;;19.90;64.23
58072;BME280;60383;46.626;18.866;2022-09-27T13:22:57;98703.63;;;19.53;65.44
58072;BME280;60383;46.626;18.866;2022-09-27T13:25:51;98700.66;;;19.37;65.91
58072;BME280;60383;46.626;18.866;2022-09-27T13:31:06;98705.44;;;18.51;68.30
58072;BME280;60383;46.626;18.866;2022-09-27T13:33:47;98704.00;;;18.83;67.45
58072;BME280;60383;46.626;18.866;2022-09-27T13:41:58;98704.56;;;18.00;70.88
58072;BME280;60383;46.626;18.866;2022-09-27T13:47:14;98701.19;;;17.98;71.06
58072;BME280;60383;46.626;18.866;2022-09-27T13:49:46;98688.97;;;18.11;71.48
58072;BME280;60383;46.626;18.866;2022-09-27T14:00:03;98672.50;;;17.92;73.57
58072;BME280;60383;46.626;18.866;2022-09-27T14:02:36;98676.59;;;18.01;74.34
58072;BME280;60383;46.626;18.866;2022-09-27T14:05:08;98668.91;;;17.63;74.44
58072;BME280;60383;46.626;18.866;2022-09-27T14:07:42;98685.78;;;17.61;75.69
58072;BME280;60383;46.626;18.866;2022-09-27T14:10:13;98675.09;;;17.53;76.11
58072;BME280;60383;46.626;18.866;2022-09-27T14:12:40;98676.53;;;17.55;75.97
58072;BME280;60383;46.626;18.866;2022-09-27T14:15:08;98678.72;;;17.53;77.82
58072;BME280;60383;46.626;18.866;2022-09-27T14:17:41;98686.78;;;17.43;77.28
58072;BME280;60383;46.626;18.866;2022-09-27T14:20:36;98690.81;;;17.23;80.19
58072;BME280;60383;46.626;18.866;2022-09-27T14:23:04;98692.97;;;17.09;82.81
58072;BME280;60383;46.626;18.866;2022-09-27T14:25:30;98699.00;;;17.18;82.99
58072;BME280;60383;46.626;18.866;2022-09-27T14:27:55;98717.13;;;17.38;82.87
58072;BME280;60383;46.626;18.866;2022-09-27T14:30:25;98711.50;;;17.09;78.11
58072;BME280;60383;46.626;18.866;2022-09-27T14:32:53;98711.75;;;16.96;76.52
58072;BME280;60383;46.626;18.866;2022-09-27T14:35:27;98727.72;;;16.82;75.52
58072;BME280;60383;46.626;18.866;2022-09-27T14:38:19;98731.69;;;16.74;75.35
58072;BME280;60383;46.626;18.866;2022-09-27T14:43:18;98751.00;;;16.50;70.48
58072;BME280;60383;46.626;18.866;2022-09-27T14:45:46;98771.06;;;16.45;79.66
58072;BME280;60383;46.626;18.866;2022-09-27T14:48:30;98756.44;;;16.69;80.39
58072;BME280;60383;46.626;18.866;2022-09-27T14:53:33;98768.81;;;15.93;84.44
58072;BME280;60383;46.626;18.866;2022-09-27T14:56:01;98776.63;;;15.78;84.82
58072;BME280;60383;46.626;18.866;2022-09-27T14:58:27;98786.22;;;15.75;84.12
58072;BME280;60383;46.626;18.866;2022-09-27T15:00:55;98790.84;;;15.63;85.86
58072;BME280;60383;46.626;18.866;2022-09-27T15:03:29;98796.03;;;15.53;85.64
58072;BME280;60383;46.626;18.866;2022-09-27T15:05:56;98801.84;;;15.26;87.40
58072;BME280;60383;46.626;18.866;2022-09-27T15:08:26;98799.56;;;15.23;87.96
58072;BME280;60383;46.626;18.866;2022-09-27T15:10:58;98801.59;;;15.27;87.15
58072;BME280;60383;46.626;18.866;2022-09-27T15:13:24;98807.50;;;15.31;87.70
58072;BME280;60383;46.626;18.866;2022-09-27T15:15:51;98806.56;;;15.18;87.65
58072;BME280;60383;46.626;18.866;2022-09-27T15:21:04;98822.97;;;14.88;88.13
58072;BME280;60383;46.626;18.866;2022-09-27T15:23:41;98831.13;;;15.01;88.34
58072;BME280;60383;46.626;18.866;2022-09-27T15:26:15;98839.75;;;14.87;86.68
58072;BME280;60383;46.626;18.866;2022-09-27T15:28:46;98848.03;;;14.80;85.68
58072;BME280;60383;46.626;18.866;2022-09-27T15:31:13;98862.06;;;14.78;85.69
58072;BME280;60383;46.626;18.866;2022-09-27T15:33:40;98873.81;;;14.67;85.08
58072;BME280;60383;46.626;18.866;2022-09-27T15:36:08;98886.34;;;14.56;86.21
58072;BME280;60383;46.626;18.866;2022-09-27T15:38:37;98892.91;;;14.55;85.84
58072;BME280;60383;46.626;18.866;2022-09-27T15:41:18;98899.94;;;14.51;86.58
58072;BME280;60383;46.626;18.866;2022-09-27T15:54:07;98892.25;;;14.21;87.19
58072;BME280;60383;46.626;18.866;2022-09-27T15:56:32;98898.16;;;14.25;87.32
58072;BME280;60383;46.626;18.866;2022-09-27T15:58:59;98900.31;;;14.16;87.41
58072;BME280;60383;46.626;18.866;2022-09-27T16:01:25;98906.28;;;14.06;87.97
58072;BME280;60383;46.626;18.866;2022-09-27T16:03:50;98918.34;;;14.05;88.88
58072;BME280;60383;46.626;18.866;2022-09-27T16:06:16;98919.19;;;14.05;89.17
58072;BME280;60383;46.626;18.866;2022-09-27T16:08:42;98919.81;;;14.08;88.45
58072;BME280;60383;46.626;18.866;2022-09-27T16:11:13;98925.97;;;14.10;88.66
58072;BME280;60383;46.626;18.866;2022-09-27T16:13:39;98932.94;;;14.05;88.78
58072;BME280;60383;46.626;18.866;2022-09-27T16:16:04;98926.84;;;13.97;88.75
58072;BME280;60383;46.626;18.866;2022-09-27T16:18:30;98928.94;;;14.01;88.79
58072;BME280;60383;46.626;18.866;2022-09-27T16:20:58;98932.56;;;13.95;88.45
58072;BME280;60383;46.626;18.866;2022-09-27T16:23:23;98927.88;;;14.02;88.39
58072;BME280;60383;46.626;18.866;2022-09-27T16:25:51;98939.81;;;13.76;88.68
58072;BME280;60383;46.626;18.866;2022-09-27T16:28:17;98924.72;;;13.92;88.53
58072;BME280;60383;46.626;18.866;2022-09-27T16:30:42;98921.34;;;13.90;88.71
58072;BME280;60383;46.626;18.866;2022-09-27T16:33:09;98921.56;;;13.95;88.63
58072;BME280;60383;46.626;18.866;2022-09-27T16:35:37;98916.06;;;13.88;87.91
58072;BME280;60383;46.626;18.866;2022-09-27T16:38:03;98929.19;;;13.93;88.15
58072;BME280;60383;46.626;18.866;2022-09-27T16:40:28;98933.84;;;13.86;88.34
58072;BME280;60383;46.626;18.866;2022-09-27T16:42:54;98938.72;;;13.90;87.55
58072;BME280;60383;46.626;18.866;2022-09-27T16:45:20;98943.34;;;13.90;87.90
58072;BME280;60383;46.626;18.866;2022-09-27T16:47:46;98944.47;;;13.76;87.86
58072;BME280;60383;46.626;18.866;2022-09-27T16:50:12;98947.66;;;13.79;88.13
58072;BME280;60383;46.626;18.866;2022-09-27T16:52:57;98958.66;;;13.59;87.89
58072;BME280;60383;46.626;18.866;2022-09-27T16:55:24;98962.84;;;13.88;87.38
58072;BME280;60383;46.626;18.866;2022-09-27T16:57:50;98956.50;;;13.88;87.74
58072;BME280;60383;46.626;18.866;2022-09-27T17:00:16;98957.78;;;13.85;88.44
58072;BME280;60383;46.626;18.866;2022-09-27T17:02:43;98954.19;;;13.85;89.08
58072;BME280;60383;46.626;18.866;2022-09-27T17:05:11;98960.09;;;13.88;89.01
58072;BME280;60383;46.626;18.866;2022-09-27T17:07:37;98955.03;;;13.85;88.95
58072;BME280;60383;46.626;18.866;2022-09-27T17:10:03;98956.91;;;13.85;89.09
58072;BME280;60383;46.626;18.866;2022-09-27T17:12:30;98959.72;;;13.78;89.56
58072;BME280;60383;46.626;18.866;2022-09-27T17:14:56;98977.91;;;13.72;88.62
58072;BME280;60383;46.626;18.866;2022-09-27T17:17:21;98977.69;;;13.81;87.07
58072;BME280;60383;46.626;18.866;2022-09-27T17:19:47;98972.38;;;13.86;87.31
58072;BME280;60383;46.626;18.866;2022-09-27T17:22:12;98981.28;;;13.74;87.44
58072;BME280;60383;46.626;18.866;2022-09-27T17:24:38;98988.91;;;13.72;87.36
58072;BME280;60383;46.626;18.866;2022-09-27T17:27:03;98985.75;;;13.69;88.10
58072;BME280;60383;46.626;18.866;2022-09-27T17:29:28;98997.38;;;13.64;87.93
58072;BME280;60383;46.626;18.866;2022-09-27T17:31:55;98997.16;;;13.72;87.57
58072;BME280;60383;46.626;18.866;2022-09-27T17:34:20;98987.84;;;13.67;88.29
58072;BME280;60383;46.626;18.866;2022-09-27T17:36:46;98992.50;;;13.66;88.55
58072;BME280;60383;46.626;18.866;2022-09-27T17:39:15;98997.41;;;13.57;89.09
58072;BME280;60383;46.626;18.866;2022-09-27T17:41:41;98997.16;;;13.59;88.76
58072;BME280;60383;46.626;18.866;2022-09-27T17:44:11;98999.09;;;13.58;88.64
58072;BME280;60383;46.626;18.866;2022-09-27T17:46:36;99001.41;;;13.55;88.71
58072;BME280;60383;46.626;18.866;2022-09-27T17:49:02;99007.34;;;13.58;88.43
58072;BME280;60383;46.626;18.866;2022-09-27T17:51:51;99013.25;;;13.49;88.75
58072;BME280;60383;46.626;18.866;2022-09-27T17:54:17;99028.03;;;13.41;89.06
58072;BME280;60383;46.626;18.866;2022-09-27T17:56:44;99024.88;;;13.44;88.96
58072;BME280;60383;46.626;18.866;2022-09-27T17:59:11;99030.59;;;13.42;89.81
58072;BME280;60383;46.626;18.866;2022-09-27T18:01:38;99023.16;;;13.30;89.49
58072;BME280;60383;46.626;18.866;2022-09-27T18:04:06;99025.28;;;13.34;89.43
58072;BME280;60383;46.626;18.866;2022-09-27T18:06:36;99025.06;;;13.36;90.10
58072;BME280;60383;46.626;18.866;2022-09-27T18:09:04;99023.59;;;13.40;90.19
58072;BME280;60383;46.626;18.866;2022-09-27T18:11:30;99023.19;;;13.43;89.73
58072;BME280;60383;46.626;18.866;2022-09-27T18:13:58;99019.41;;;13.44;89.39
58072;BME280;60383;46.626;18.866;2022-09-27T18:16:31;99022.34;;;13.42;89.60
58072;BME280;60383;46.626;18.866;2022-09-27T18:19:00;99034.19;;;13.56;87.30
58072;BME280;60383;46.626;18.866;2022-09-27T18:21:27;99042.66;;;13.48;87.40
58072;BME280;60383;46.626;18.866;2022-09-27T18:23:54;99041.56;;;13.42;87.43
58072;BME280;60383;46.626;18.866;2022-09-27T18:26:21;99043.28;;;13.44;88.17
58072;BME280;60383;46.626;18.866;2022-09-27T18:28:49;99039.25;;;13.46;87.54
58072;BME280;60383;46.626;18.866;2022-09-27T18:31:16;99039.44;;;13.31;88.31
58072;BME280;60383;46.626;18.866;2022-09-27T18:33:42;99035.81;;;13.17;88.39
58072;BME280;60383;46.626;18.866;2022-09-27T18:36:12;99041.53;;;13.22;87.76
58072;BME280;60383;46.626;18.866;2022-09-27T18:38:39;99042.56;;;13.15;88.00
58072;BME280;60383;46.626;18.866;2022-09-27T18:41:37;99050.41;;;13.11;88.05
58072;BME280;60383;46.626;18.866;2022-09-27T18:44:00;99033.91;;;13.18;87.96
58072;BME280;60383;46.626;18.866;2022-09-27T18:46:27;99038.34;;;13.25;86.31
58072;BME280;60383;46.626;18.866;2022-09-27T18:48:54;99051.03;;;13.13;87.07
58072;BME280;60383;46.626;18.866;2022-09-27T18:51:25;99054.78;;;12.99;86.98
58072;BME280;60383;46.626;18.866;2022-09-27T18:53:56;99060.13;;;13.14;86.11
58072;BME280;60383;46.626;18.866;2022-09-27T18:56:22;99078.97;;;13.23;85.29
58072;BME280;60383;46.626;18.866;2022-09-27T18:58:47;99081.91;;;13.22;85.49
58072;BME280;60383;46.626;18.866;2022-09-27T19:01:14;99076.00;;;13.25;85.91
58072;BME280;60383;46.626;18.866;2022-09-27T19:03:41;99080.84;;;13.23;86.18
58072;BME280;60383;46.626;18.866;2022-09-27T19:06:10;99090.19;;;13.29;85.98
58072;BME280;60383;46.626;18.866;2022-09-27T19:08:36;99094.63;;;13.30;85.33
58072;BME280;60383;46.626;18.866;2022-09-27T19:11:04;99095.47;;;13.30;85.91
58072;BME280;60383;46.626;18.866;2022-09-27T19:13:30;99085.94;;;13.26;86.24
58072;BME280;60383;46.626;18.866;2022-09-27T19:15:56;99087.84;;;13.19;86.50
58072;BME280;60383;46.626;18.866;2022-09-27T19:18:23;99088.69;;;13.26;86.19
58072;BME280;60383;46.626;18.866;2022-09-27T19:20:49;99085.31;;;13.24;85.68
58072;BME280;60383;46.626;18.866;2022-09-27T19:23:15;99096.69;;;13.14;86.31
58072;BME280;60383;46.626;18.866;2022-09-27T19:25:40;99096.47;;;13.09;87.17
58072;BME280;60383;46.626;18.866;2022-09-27T19:28:06;99095.88;;;13.14;87.18
58072;BME280;60383;46.626;18.866;2022-09-27T19:30:31;99091.41;;;13.13;86.31
58072;BME280;60383;46.626;18.866;2022-09-27T19:32:57;99105.81;;;13.21;85.79
58072;BME280;60383;46.626;18.866;2022-09-27T19:35:22;99111.94;;;13.17;85.09
58072;BME280;60383;46.626;18.866;2022-09-27T19:37:48;99099.88;;;13.18;85.24
58072;BME280;60383;46.626;18.866;2022-09-27T19:40:13;99108.75;;;13.13;85.51
58072;BME280;60383;46.626;18.866;2022-09-27T19:42:39;99101.13;;;13.08;85.98
58072;BME280;60383;46.626;18.866;2022-09-27T19:45:05;99096.88;;;13.06;85.82
58072;BME280;60383;46.626;18.866;2022-09-27T19:47:31;99103.41;;;12.98;86.55
58072;BME280;60383;46.626;18.866;2022-09-27T19:49:57;99096.25;;;13.04;86.87
58072;BME280;60383;46.626;18.866;2022-09-27T19:52:22;99108.47;;;13.01;86.65
58072;BME280;60383;46.626;18.866;2022-09-27T19:54:49;99104.69;;;13.02;86.39
58072;BME280;60383;46.626;18.866;2022-09-27T19:57:14;99108.91;;;12.98;87.14
58072;BME280;60383;46.626;18.866;2022-09-27T19:59:39;99119.09;;;13.04;85.88
58072;BME280;60383;46.626;18.866;2022-09-27T20:02:07;99117.56;;;12.95;86.40
58072;BME280;60383;46.626;18.866;2022-09-27T20:04:33;99111.22;;;12.94;86.56
58072;BME280;60383;46.626;18.866;2022-09-27T20:06:58;99119.47;;;13.01;85.79
58072;BME280;60383;46.626;18.866;2022-09-27T20:09:24;99118.19;;;12.90;86.87
58072;BME280;60383;46.626;18.866;2022-09-27T20:11:49;99117.97;;;12.92;87.02
58072;BME280;60383;46.626;18.866;2022-09-27T20:14:14;99115.22;;;12.92;86.88
58072;BME280;60383;46.626;18.866;2022-09-27T20:16:40;99112.25;;;12.87;86.83
58072;BME280;60383;46.626;18.866;2022-09-27T20:19:07;99122.59;;;12.91;86.65
58072;BME280;60383;46.626;18.866;2022-09-27T20:21:32;99112.66;;;12.84;86.74
58072;BME280;60383;46.626;18.866;2022-09-27T20:23:59;99116.06;;;12.86;86.99
58072;BME280;60383;46.626;18.866;2022-09-27T20:26:27;99119.56;;;12.73;86.21
58072;BME280;60383;46.626;18.866;2022-09-27T20:28:58;99123.84;;;12.82;85.11
58072;BME280;60383;46.626;18.866;2022-09-27T20:31:24;99127.88;;;12.80;84.67
58072;BME280;60383;46.626;18.866;2022-09-27T20:33:50;99132.34;;;12.94;84.19
58072;BME280;60383;46.626;18.866;2022-09-27T20:36:18;99133.59;;;12.85;83.44
58072;BME280;60383;46.626;18.866;2022-09-27T20:38:49;99139.47;;;12.82;83.70
58072;BME280;60383;46.626;18.866;2022-09-27T20:41:15;99134.19;;;12.80;84.37
58072;BME280;60383;46.626;18.866;2022-09-27T20:43:46;99143.91;;;12.83;82.83
58072;BME280;60383;46.626;18.866;2022-09-27T20:46:14;99150.22;;;12.76;83.58
58072;BME280;60383;46.626;18.866;2022-09-27T20:48:41;99156.53;;;12.70;83.27
58072;BME280;60383;46.626;18.866;2022-09-27T20:51:09;99156.94;;;12.67;83.60
58072;BME280;60383;46.626;18.866;2022-09-27T20:53:35;99153.56;;;12.65;84.25
58072;BME280;60383;46.626;18.866;2022-09-27T20:56:00;99155.72;;;12.70;83.97
58072;BME280;60383;46.626;18.866;2022-09-27T20:58:30;99164.34;;;12.67;83.13
58072;BME280;60383;46.626;18.866;2022-09-27T21:00:56;99166.84;;;12.61;83.33
58072;BME280;60383;46.626;18.866;2022-09-27T21:03:21;99162.09;;;12.49;83.80
58072;BME280;60383;46.626;18.866;2022-09-27T21:05:57;99163.22;;;12.54;84.13
58072;BME280;60383;46.626;18.866;2022-09-27T21:08:23;99161.66;;;12.45;84.69
58072;BME280;60383;46.626;18.866;2022-09-27T21:10:49;99168.41;;;12.42;84.70
58072;BME280;60383;46.626;18.866;2022-09-27T21:13:15;99170.50;;;12.40;84.90
58072;BME280;60383;46.626;18.866;2022-09-27T21:15:41;99175.53;;;12.37;85.43
58072;BME280;60383;46.626;18.866;2022-09-27T21:18:07;99173.44;;;12.39;85.11
58072;BME280;60383;46.626;18.866;2022-09-27T21:20:32;99170.00;;;12.30;85.18
58072;BME280;60383;46.626;18.866;2022-09-27T21:22:58;99168.06;;;12.24;85.55
58072;BME280;60383;46.626;18.866;2022-09-27T21:25:23;99172.50;;;12.25;86.09
58072;BME280;60383;46.626;18.866;2022-09-27T21:27:53;99174.00;;;12.27;86.21
58072;BME280;60383;46.626;18.866;2022-09-27T21:30:20;99164.66;;;12.22;86.70
58072;BME280;60383;46.626;18.866;2022-09-27T21:32:54;99159.38;;;12.20;86.49
58072;BME280;60383;46.626;18.866;2022-09-27T21:35:21;99161.06;;;12.21;86.30
58072;BME280;60383;46.626;18.866;2022-09-27T21:37:47;99163.16;;;12.19;86.14
58072;BME280;60383;46.626;18.866;2022-09-27T21:40:12;99175.44;;;12.23;86.10
58072;BME280;60383;46.626;18.866;2022-09-27T21:42:38;99178.59;;;12.20;85.36
58072;BME280;60383;46.626;18.866;2022-09-27T21:45:03;99189.28;;;12.15;86.06
58072;BME280;60383;46.626;18.866;2022-09-27T21:47:28;99186.97;;;12.12;85.93
58072;BME280;60383;46.626;18.866;2022-09-27T21:49:54;99179.91;;;12.03;86.30
58072;BME280;60383;46.626;18.866;2022-09-27T21:52:19;99186.72;;;11.92;86.28
58072;BME280;60383;46.626;18.866;2022-09-27T21:54:45;99194.53;;;12.10;84.79
58072;BME280;60383;46.626;18.866;2022-09-27T21:57:10;99206.84;;;12.14;84.34
58072;BME280;60383;46.626;18.866;2022-09-27T21:59:35;99208.00;;;12.05;84.23
58072;BME280;60383;46.626;18.866;2022-09-27T22:02:01;99212.66;;;11.89;85.20
58072;BME280;60383;46.626;18.866;2022-09-27T22:04:27;99207.31;;;11.81;85.70
58072;BME280;60383;46.626;18.866;2022-09-27T22:06:52;99198.25;;;11.80;86.59
58072;BME280;60383;46.626;18.866;2022-09-27T22:09:18;99202.28;;;11.85;86.77
58072;BME280;60383;46.626;18.866;2022-09-27T22:11:44;99208.97;;;11.75;86.84
58072;BME280;60383;46.626;18.866;2022-09-27T22:14:13;99208.28;;;11.73;85.99
58072;BME280;60383;46.626;18.866;2022-09-27T22:16:39;99213.78;;;11.73;86.71
58072;BME280;60383;46.626;18.866;2022-09-27T22:19:05;99212.59;;;11.61;86.70
58072;BME280;60383;46.626;18.866;2022-09-27T22:21:33;99214.94;;;11.64;86.05
58072;BME280;60383;46.626;18.866;2022-09-27T22:24:01;99220.56;;;11.77;84.38
58072;BME280;60383;46.626;18.866;2022-09-27T22:26:30;99216.00;;;11.85;84.02
58072;BME280;60383;46.626;18.866;2022-09-27T22:28:56;99213.00;;;11.79;84.06
58072;BME280;60383;46.626;18.866;2022-09-27T22:31:22;99228.72;;;11.71;85.22
58072;BME280;60383;46.626;18.866;2022-09-27T22:36:14;99213.06;;;11.86;83.99
58072;BME280;60383;46.626;18.866;2022-09-27T22:38:39;99209.59;;;11.77;84.01
58072;BME280;60383;46.626;18.866;2022-09-27T22:41:04;99212.66;;;11.89;81.70
58072;BME280;60383;46.626;18.866;2022-09-27T22:43:30;99222.59;;;11.90;81.38
58072;BME280;60383;46.626;18.866;2022-09-27T22:45:56;99225.72;;;12.02;80.56
58072;BME280;60383;46.626;18.866;2022-09-27T22:48:24;99219.47;;;12.15;79.08
58072;BME280;60383;46.626;18.866;2022-09-27T22:50:50;99218.91;;;12.20;79.48
58072;BME280;60383;46.626;18.866;2022-09-27T22:53:15;99212.69;;;12.11;79.77
58072;BME280;60383;46.626;18.866;2022-09-27T22:55:40;99213.38;;;12.13;80.18
58072;BME280;60383;46.626;18.866;2022-09-27T22:58:06;99213.22;;;12.21;79.28
58072;BME280;60383;46.626;18.866;2022-09-27T23:00:31;99215.97;;;12.21;79.33
58072;BME280;60383;46.626;18.866;2022-09-27T23:02:58;99213.22;;;12.21;79.73
58072;BME280;60383;46.626;18.866;2022-09-27T23:05:24;99206.63;;;12.16;79.73
58072;BME280;60383;46.626;18.866;2022-09-27T23:07:50;99204.09;;;12.14;80.38
58072;BME280;60383;46.626;18.866;2022-09-27T23:10:18;99205.59;;;12.17;79.56
58072;BME280;60383;46.626;18.866;2022-09-27T23:12:44;99202.59;;;12.11;80.10
58072;BME280;60383;46.626;18.866;2022-09-27T23:15:10;99212.25;;;12.07;80.23
58072;BME280;60383;46.626;18.866;2022-09-27T23:17:36;99215.56;;;12.03;80.73
58072;BME280;60383;46.626;18.866;2022-09-27T23:20:02;99208.59;;;12.00;81.30
58072;BME280;60383;46.626;18.866;2022-09-27T23:22:31;99206.72;;;12.01;81.66
58072;BME280;60383;46.626;18.866;2022-09-27T23:24:56;99206.41;;;11.95;81.28
58072;BME280;60383;46.626;18.866;2022-09-27T23:27:22;99192.63;;;11.89;82.32
58072;BME280;60383;46.626;18.866;2022-09-27T23:30:10;99187.72;;;11.84;83.14
58072;BME280;60383;46.626;18.866;2022-09-27T23:32:36;99202.16;;;11.71;84.08
58072;BME280;60383;46.626;18.866;2022-09-27T23:35:01;99195.44;;;11.74;84.49
58072;BME280;60383;46.626;18.866;2022-09-27T23:37:27;99185.69;;;11.71;85.45
58072;BME280;60383;46.626;18.866;2022-09-27T23:39:53;99175.59;;;11.72;83.97
58072;BME280;60383;46.626;18.866;2022-09-27T23:42:18;99175.34;;;11.66;84.47
58072;BME280;60383;46.626;18.866;2022-09-27T23:44:44;99173.78;;;11.64;85.78
58072;BME280;60383;46.626;18.866;2022-09-27T23:47:10;99182.03;;;11.64;85.89
58072;BME280;60383;46.626;18.866;2022-09-27T23:49:35;99190.25;;;11.64;85.61
58072;BME280;60383;46.626;18.866;2022-09-27T23:52:02;99201.22;;;11.64;85.07
58072;BME280;60383;46.626;18.866;2022-09-27T23:54:27;99212.03;;;11.65;84.39
58072;BME280;60383;46.626;18.866;2022-09-27T23:56:53;99208.50;;;11.72;84.39
58072;BME280;60383;46.626;18.866;2022-09-27T23:59:18;99206.84;;;11.77;84.03
